Owensboro, KY (42303)

1:30 AM CST on March 01, 2015 (GMT -0600)
KKYOWENS4 | Change Station
CLOSE
Current Station
Personal Weather Station
Location: Owensboro, Scotty Lane, KY
Elevation: 477 ft
Nearby Weather Stations

Elev 477 ft 37.74 °N, 87.07 °W | Updated 5 seconds ago

Overcast
Overcast
32.5 °F
Feels Like 32 °F
N
0.0
Wind Variable Wind from East
Gusts 5.8 mph

Today
High -- | Low -- °F
--% Chance of Precip.
Yesterday
High -- | Low -- °F
Precip. -- in
6:20 AM 5:41 PM
Waxing Gibbous, 83% visible
Pressure 30.43 in
Visibility 10.0 miles
Clouds Few 8000 ft
Windchill 32 °F
Dew Point 21 °F
Humidity 62%
Rainfall 0.00 in
Snow Depth Not available.
UV 0 out of 12
Pollen .20 out of 12
Air Quality Not available.
Flu Activity Not available.
METAR KOWB 010656Z AUTO 04006KT 10SM FEW080 01/M06 A3042 RMK AO2 TSNO T00051061 SLP305

More Conditions Fewer Conditions

Pressure 30.43 in
Visibility 10.0 miles
Clouds Few 8000 ft
Windchill 32 °F
Dew Point 21 °F
Humidity 62%
Rainfall 0.00 in
Snow Depth Not available.
UV 0 out of 12
Pollen .20 out of 12
Air Quality Not available.
Flu Activity Not available.
METAR KOWB 010656Z AUTO 04006KT 10SM FEW080 01/M06 A3042 RMK AO2 TSNO T00051061 SLP305

More Conditions Fewer Conditions

10-Day Weather Forecast

Almanac

Astronomy

Mar. 01, 2015 Rise Set
Actual Time
Civil Twilight
Nautical Twilight
Astronomical Twilight
Moon
Length of Visible Light
Length of Day
Tomorrow will be .
, % of the Moon is Illuminated

Today's Extremes

State Highs State Lows

Community

WunderPhotos

Upload Photos

1,801,347 photos uploaded!

WunderBlogs® & News

Nearby

Air Quality

  Air Quality AQ Index Pollutant
Not available.

Snow Depth

Station Depth Elevation

Earthquake Activity

City Distance Mag. Time & Date
Minimum magnitude displayed is 2.5.

Coastal Water Temperatures

Place Temperature

Nearby Weather Stations